createdAt,value
2022-09-15T00:01:17.227Z,12.20
2022-09-15T00:03:44.917Z,12.20
2022-09-15T00:06:12.603Z,12.10
2022-09-15T00:08:40.811Z,12.00
2022-09-15T00:11:19.234Z,12.00
2022-09-15T00:13:47.386Z,12.00
2022-09-15T00:16:16.506Z,11.90
2022-09-15T00:18:46.214Z,11.90
2022-09-15T00:21:20.005Z,11.80
2022-09-15T00:23:48.661Z,11.80
2022-09-15T00:26:19.634Z,11.90
2022-09-15T00:28:47.930Z,11.80
2022-09-15T00:31:18.779Z,11.90
2022-09-15T00:33:51.122Z,11.90
2022-09-15T00:36:20.114Z,11.90
2022-09-15T00:38:48.105Z,11.90
2022-09-15T00:41:18.165Z,11.90
2022-09-15T00:43:48.469Z,11.90
2022-09-15T00:46:18.816Z,11.90
2022-09-15T00:48:57.914Z,12.00
2022-09-15T00:51:36.506Z,12.00
2022-09-15T00:54:10.363Z,12.00
2022-09-15T00:56:40.242Z,12.00
2022-09-15T00:59:12.713Z,12.00
2022-09-15T01:01:42.518Z,12.00
2022-09-15T01:04:10.336Z,12.00
2022-09-15T01:06:48.284Z,12.00
2022-09-15T01:09:23.706Z,11.90
2022-09-15T01:11:51.469Z,11.90
2022-09-15T01:14:18.982Z,11.80
2022-09-15T01:17:12.432Z,11.90
2022-09-15T01:20:12.271Z,12.00
2022-09-15T01:23:03.301Z,12.00
2022-09-15T01:25:51.325Z,12.10
2022-09-15T01:29:04.835Z,11.90
2022-09-15T01:32:06.946Z,12.00
2022-09-15T01:34:42.155Z,12.00
2022-09-15T01:37:18.314Z,12.00
2022-09-15T01:39:48.755Z,11.90
2022-09-15T01:42:17.485Z,11.90
2022-09-15T01:44:59.217Z,11.90
2022-09-15T01:47:29.828Z,11.90
2022-09-15T01:50:07.198Z,11.90
2022-09-15T01:52:34.984Z,12.00
2022-09-15T01:55:08.044Z,11.90
2022-09-15T01:57:35.582Z,11.90
2022-09-15T02:00:03.493Z,11.80
2022-09-15T02:02:44.740Z,11.90
2022-09-15T02:05:31.001Z,11.90
2022-09-15T02:08:16.322Z,11.90
2022-09-15T02:10:50.123Z,11.80
2022-09-15T02:13:21.664Z,11.80
2022-09-15T02:15:54.335Z,11.80
2022-09-15T02:18:45.450Z,11.80
2022-09-15T02:21:21.969Z,11.70
2022-09-15T02:23:55.168Z,11.60
2022-09-15T02:26:28.006Z,11.70
2022-09-15T02:28:56.583Z,11.70
2022-09-15T02:31:25.921Z,11.80
2022-09-15T02:34:03.970Z,11.80
2022-09-15T02:36:32.041Z,11.80
2022-09-15T02:39:09.521Z,11.70
2022-09-15T02:41:37.584Z,11.70
2022-09-15T02:44:05.202Z,11.80
2022-09-15T02:46:34.163Z,11.80
2022-09-15T02:49:01.737Z,11.70
2022-09-15T02:51:29.722Z,11.70
2022-09-15T02:53:57.608Z,11.70
2022-09-15T02:56:25.502Z,11.70
2022-09-15T02:58:52.997Z,11.70
2022-09-15T03:01:20.813Z,11.70
2022-09-15T03:03:48.352Z,11.70
2022-09-15T03:06:18.572Z,11.80
2022-09-15T03:08:51.103Z,11.80
2022-09-15T03:11:21.184Z,11.80
2022-09-15T03:13:49.641Z,11.80
2022-09-15T03:16:17.393Z,11.70
2022-09-15T03:18:44.865Z,11.70
2022-09-15T03:21:14.175Z,11.70
2022-09-15T03:23:42.581Z,11.70
2022-09-15T03:26:11.257Z,11.60
2022-09-15T03:28:40.188Z,11.60
2022-09-15T03:31:09.079Z,11.60
2022-09-15T03:33:37.716Z,11.60
2022-09-15T03:36:07.185Z,11.60
2022-09-15T03:38:34.673Z,11.60
2022-09-15T03:41:03.699Z,11.70
2022-09-15T03:43:32.295Z,11.70
2022-09-15T03:46:00.247Z,11.60
2022-09-15T03:48:28.793Z,11.60
2022-09-15T03:50:56.498Z,11.60
2022-09-15T03:53:24.089Z,11.60
2022-09-15T03:55:51.962Z,11.60
2022-09-15T03:58:19.841Z,11.60
2022-09-15T04:00:47.804Z,11.60
2022-09-15T04:03:15.307Z,11.60
2022-09-15T04:05:42.857Z,11.50
2022-09-15T04:08:12.995Z,11.40
2022-09-15T04:10:41.510Z,11.40
2022-09-15T04:13:09.469Z,11.50
2022-09-15T04:15:37.021Z,11.50
2022-09-15T04:18:05.187Z,11.50
2022-09-15T04:20:32.831Z,11.40
2022-09-15T04:23:00.362Z,11.30
2022-09-15T04:25:28.133Z,11.30
2022-09-15T04:27:57.185Z,11.40
2022-09-15T04:30:24.739Z,11.40
2022-09-15T04:32:52.701Z,11.30
2022-09-15T04:35:22.227Z,11.40
2022-09-15T04:37:49.827Z,11.30
2022-09-15T04:40:17.785Z,11.30
2022-09-15T04:42:47.079Z,11.30
2022-09-15T04:45:14.713Z,11.30
2022-09-15T04:47:42.210Z,11.30
2022-09-15T04:50:10.174Z,11.30
2022-09-15T04:52:37.953Z,11.40
2022-09-15T04:55:05.734Z,11.40
2022-09-15T04:57:33.838Z,11.30
2022-09-15T05:00:04.164Z,11.30
2022-09-15T05:02:31.889Z,11.40
2022-09-15T05:04:59.717Z,11.30
2022-09-15T05:07:27.248Z,11.30
2022-09-15T05:09:54.876Z,11.40
2022-09-15T05:12:22.781Z,11.30
2022-09-15T05:14:50.119Z,11.30
2022-09-15T05:17:17.687Z,11.30
2022-09-15T05:19:45.099Z,11.40
2022-09-15T05:22:12.621Z,11.40
2022-09-15T05:24:40.165Z,11.40
2022-09-15T05:27:07.700Z,11.30
2022-09-15T05:29:35.531Z,11.40
2022-09-15T05:32:03.248Z,11.40
2022-09-15T05:34:30.719Z,11.40
2022-09-15T05:36:58.277Z,11.30
2022-09-15T05:39:25.660Z,11.30
2022-09-15T05:41:53.307Z,11.30
2022-09-15T05:44:21.663Z,11.30
2022-09-15T05:46:49.846Z,11.30
2022-09-15T05:49:17.341Z,11.30
2022-09-15T05:51:44.894Z,11.20
2022-09-15T05:54:12.254Z,11.30
2022-09-15T05:56:40.037Z,11.30
2022-09-15T05:59:07.798Z,11.30
2022-09-15T06:01:35.846Z,11.30
2022-09-15T06:04:03.775Z,11.30
2022-09-15T06:06:32.737Z,11.30
2022-09-15T06:09:00.866Z,11.30
2022-09-15T06:11:31.006Z,11.30
2022-09-15T06:14:03.514Z,11.20
2022-09-15T06:16:35.777Z,11.10
2022-09-15T06:19:04.127Z,11.10
2022-09-15T06:21:33.014Z,11.20
2022-09-15T06:24:03.621Z,11.20
2022-09-15T06:26:31.387Z,11.20
2022-09-15T06:29:01.472Z,11.30
2022-09-15T06:31:34.174Z,11.30
2022-09-15T06:34:04.285Z,11.20
2022-09-15T06:36:32.390Z,11.30
2022-09-15T06:39:00.711Z,11.30
2022-09-15T06:41:47.430Z,11.30
2022-09-15T06:44:19.817Z,11.30
2022-09-15T06:46:47.751Z,11.30
2022-09-15T06:49:15.354Z,11.20
2022-09-15T06:51:42.784Z,11.30
2022-09-15T06:54:10.356Z,11.30
2022-09-15T06:56:38.485Z,11.30
2022-09-15T06:59:06.431Z,11.30
2022-09-15T07:01:34.328Z,11.30
2022-09-15T07:04:05.034Z,11.30
2022-09-15T07:06:34.155Z,11.30
2022-09-15T07:09:02.807Z,11.30
2022-09-15T07:11:31.304Z,11.30
2022-09-15T07:13:59.045Z,11.30
2022-09-15T07:16:27.006Z,11.40
2022-09-15T07:19:00.648Z,11.40
2022-09-15T07:21:28.634Z,11.40
2022-09-15T07:23:58.135Z,11.40
2022-09-15T07:26:27.960Z,11.40
2022-09-15T07:28:58.069Z,11.40
2022-09-15T07:31:28.336Z,11.50
2022-09-15T07:33:56.066Z,11.50
2022-09-15T07:36:23.843Z,11.50
2022-09-15T07:38:51.474Z,11.50
2022-09-15T07:41:25.085Z,11.50
2022-09-15T07:43:55.015Z,11.50
2022-09-15T07:46:24.460Z,11.50
2022-09-15T07:48:56.676Z,11.60
2022-09-15T07:51:25.260Z,11.60
2022-09-15T07:53:54.022Z,11.50
2022-09-15T07:56:24.134Z,11.60
2022-09-15T07:58:52.103Z,11.50
2022-09-15T08:01:20.766Z,11.60
2022-09-15T08:03:50.455Z,11.60
2022-09-15T08:06:23.520Z,11.60
2022-09-15T08:08:57.700Z,11.60
2022-09-15T08:11:26.865Z,11.70
2022-09-15T08:13:54.419Z,11.70
2022-09-15T08:16:24.394Z,11.70
2022-09-15T08:18:55.654Z,11.70
2022-09-15T08:21:23.189Z,11.80
2022-09-15T08:23:52.882Z,11.80
2022-09-15T08:26:20.544Z,11.80
2022-09-15T08:28:48.745Z,11.80
2022-09-15T08:31:17.428Z,11.80
2022-09-15T08:33:49.997Z,11.80
2022-09-15T08:36:18.328Z,11.90
2022-09-15T08:38:46.322Z,11.90
2022-09-15T08:41:36.636Z,12.00
2022-09-15T08:44:22.627Z,12.00
2022-09-15T08:47:03.307Z,11.90
2022-09-15T08:49:51.493Z,12.00
2022-09-15T08:52:34.922Z,12.00
2022-09-15T08:55:10.097Z,12.00
2022-09-15T08:57:37.846Z,12.00
2022-09-15T09:00:07.179Z,12.00
2022-09-15T09:03:13.880Z,12.00
2022-09-15T09:05:46.082Z,12.00
2022-09-15T09:08:31.586Z,12.00
2022-09-15T09:11:43.728Z,12.00
2022-09-15T09:14:35.659Z,12.00
2022-09-15T09:17:31.286Z,12.00
2022-09-15T09:20:26.422Z,12.10
2022-09-15T09:22:55.029Z,12.10
2022-09-15T09:25:27.940Z,12.10
2022-09-15T09:27:58.690Z,12.20
2022-09-15T09:30:29.843Z,12.20
2022-09-15T09:33:25.856Z,12.30
2022-09-15T09:35:53.531Z,12.40
2022-09-15T09:38:31.852Z,12.50
2022-09-15T09:41:02.271Z,12.50
2022-09-15T09:43:31.258Z,12.50
2022-09-15T09:45:59.545Z,12.50
2022-09-15T09:48:29.030Z,12.60
2022-09-15T09:50:56.916Z,12.60
2022-09-15T09:53:31.951Z,12.70
2022-09-15T09:56:18.452Z,12.70
2022-09-15T09:58:46.358Z,12.70
2022-09-15T10:01:18.146Z,12.60
2022-09-15T10:03:47.718Z,12.70
2022-09-15T10:06:23.024Z,12.70
2022-09-15T10:08:58.354Z,12.70
2022-09-15T10:12:01.986Z,12.80
2022-09-15T10:14:42.150Z,12.90
2022-09-15T10:17:22.367Z,12.90
2022-09-15T10:19:52.914Z,12.90
2022-09-15T10:22:46.909Z,12.90
2022-09-15T10:25:20.483Z,12.90
2022-09-15T10:28:12.825Z,13.00
2022-09-15T10:31:01.516Z,13.10
2022-09-15T10:33:42.035Z,13.20
2022-09-15T10:36:20.338Z,13.30
2022-09-15T10:39:03.611Z,13.40
2022-09-15T10:41:33.078Z,13.50
2022-09-15T10:44:26.854Z,13.50
2022-09-15T10:47:12.785Z,13.40
2022-09-15T10:50:03.925Z,13.30
2022-09-15T10:52:57.933Z,13.20
2022-09-15T10:55:53.628Z,13.20
2022-09-15T10:58:57.073Z,13.20
2022-09-15T11:01:30.665Z,13.30
2022-09-15T11:04:20.536Z,13.30
2022-09-15T11:07:10.492Z,13.40
2022-09-15T11:10:01.631Z,13.60
2022-09-15T11:13:00.827Z,13.70
2022-09-15T11:15:53.375Z,13.80
2022-09-15T11:18:59.112Z,13.90
2022-09-15T11:21:33.345Z,13.90
2022-09-15T11:24:17.073Z,14.00
2022-09-15T11:27:13.274Z,14.00
2022-09-15T11:30:01.389Z,13.90
2022-09-15T11:32:54.261Z,13.90
2022-09-15T11:35:37.073Z,13.90
2022-09-15T11:38:34.650Z,14.20
2022-09-15T11:41:25.201Z,14.30
2022-09-15T11:44:16.754Z,14.30
2022-09-15T11:47:05.824Z,14.30
2022-09-15T11:50:11.797Z,14.10
2022-09-15T11:53:01.197Z,14.10
2022-09-15T11:55:38.269Z,14.00
2022-09-15T11:58:22.227Z,14.00
2022-09-15T12:01:19.318Z,14.00
2022-09-15T12:04:08.759Z,14.00
2022-09-15T12:06:45.558Z,14.20
2022-09-15T12:09:20.624Z,14.20
2022-09-15T12:11:58.695Z,14.20
2022-09-15T12:14:35.598Z,14.30
2022-09-15T12:17:05.933Z,14.20
2022-09-15T12:19:35.971Z,14.20
2022-09-15T12:22:28.752Z,14.10
2022-09-15T12:25:11.551Z,14.00
2022-09-15T12:27:39.211Z,14.00
2022-09-15T12:30:27.020Z,13.90
2022-09-15T12:32:56.991Z,13.90
2022-09-15T12:35:24.393Z,13.80
2022-09-15T12:37:59.418Z,13.90
2022-09-15T12:40:38.166Z,13.80
2022-09-15T12:43:11.911Z,13.80
2022-09-15T12:45:41.674Z,13.80
2022-09-15T12:48:17.391Z,13.80
2022-09-15T12:50:57.632Z,13.80
2022-09-15T12:53:27.538Z,13.80
2022-09-15T12:55:57.613Z,13.90
2022-09-15T12:58:46.762Z,13.80
2022-09-15T13:01:23.309Z,13.90
2022-09-15T13:03:51.155Z,14.00
2022-09-15T13:06:29.212Z,14.00
2022-09-15T13:09:06.040Z,14.10
2022-09-15T13:11:50.446Z,14.10
2022-09-15T13:14:37.347Z,14.10
2022-09-15T13:17:14.422Z,14.00
2022-09-15T13:19:46.941Z,14.10
2022-09-15T13:22:30.317Z,14.10
2022-09-15T13:25:11.484Z,14.10
2022-09-15T13:27:54.108Z,14.00
2022-09-15T13:30:59.132Z,14.00
2022-09-15T13:40:28.142Z,13.90
2022-09-15T13:43:26.690Z,13.90
2022-09-15T13:46:13.273Z,13.90
2022-09-15T13:48:52.993Z,13.90
2022-09-15T13:51:31.749Z,13.90
2022-09-15T13:54:03.729Z,13.90
2022-09-15T13:56:41.497Z,13.90
2022-09-15T13:59:27.447Z,13.80
2022-09-15T14:01:55.942Z,13.80
2022-09-15T14:04:32.149Z,13.80
2022-09-15T14:07:02.009Z,13.70
2022-09-15T14:09:44.869Z,13.70
2022-09-15T14:12:15.269Z,13.70
2022-09-15T14:14:44.928Z,13.60
2022-09-15T14:17:22.893Z,13.60
2022-09-15T14:19:53.251Z,13.40
2022-09-15T14:22:28.930Z,13.40
2022-09-15T14:24:57.858Z,13.30
2022-09-15T14:27:32.393Z,13.30
2022-09-15T14:30:05.282Z,13.30
2022-09-15T14:32:38.981Z,13.30
2022-09-15T14:35:09.637Z,13.30
2022-09-15T14:37:37.438Z,13.40
2022-09-15T14:40:20.245Z,13.30
2022-09-15T14:42:49.942Z,13.40
2022-09-15T14:48:17.368Z,13.30
2022-09-15T14:50:46.842Z,13.30
2022-09-15T14:53:20.057Z,13.40
2022-09-15T14:56:07.709Z,13.50
2022-09-15T14:58:43.792Z,13.50
2022-09-15T15:01:23.749Z,13.40
2022-09-15T15:04:15.198Z,13.40
2022-09-15T15:07:05.760Z,13.50
2022-09-15T15:09:48.228Z,13.40
2022-09-15T15:12:33.602Z,13.40
2022-09-15T15:15:04.080Z,13.30
2022-09-15T15:17:41.009Z,13.40
2022-09-15T15:20:11.381Z,13.50
2022-09-15T15:22:43.174Z,13.50
2022-09-15T15:25:38.775Z,13.50
2022-09-15T15:28:36.273Z,13.40
2022-09-15T15:31:17.235Z,13.40
2022-09-15T15:33:56.514Z,13.40
2022-09-15T15:36:32.437Z,13.00
2022-09-15T15:39:05.866Z,12.90
2022-09-15T15:41:43.358Z,12.80
2022-09-15T15:44:16.904Z,12.80
2022-09-15T15:47:04.774Z,12.60
2022-09-15T15:49:36.793Z,12.50
2022-09-15T15:52:07.953Z,12.50
2022-09-15T15:54:35.568Z,12.40
2022-09-15T15:57:24.722Z,12.50
2022-09-15T15:59:56.484Z,12.30
2022-09-15T16:02:25.562Z,12.40
2022-09-15T16:04:53.114Z,12.50
2022-09-15T16:07:23.670Z,12.50
2022-09-15T16:09:51.691Z,12.50
2022-09-15T16:12:21.744Z,12.50
2022-09-15T16:14:49.409Z,12.60
2022-09-15T16:17:16.816Z,12.50
2022-09-15T16:19:46.523Z,12.50
2022-09-15T16:22:22.058Z,12.50
2022-09-15T16:24:51.684Z,12.40
2022-09-15T16:27:19.459Z,12.50
2022-09-15T16:29:49.251Z,12.50
2022-09-15T16:32:24.998Z,12.50
2022-09-15T16:34:57.206Z,12.40
2022-09-15T16:37:27.186Z,12.30
2022-09-15T16:39:55.442Z,12.30
2022-09-15T16:42:23.274Z,12.30
2022-09-15T16:44:51.488Z,12.30
2022-09-15T16:47:20.810Z,12.30
2022-09-15T16:49:51.975Z,12.20
2022-09-15T16:52:20.298Z,12.20
2022-09-15T16:54:47.768Z,12.20
2022-09-15T16:57:20.234Z,12.30
2022-09-15T16:59:51.474Z,12.30
2022-09-15T17:02:23.221Z,12.30
2022-09-15T17:04:51.727Z,12.20
2022-09-15T17:07:20.387Z,11.90
2022-09-15T17:09:53.533Z,12.00
2022-09-15T17:12:22.614Z,12.10
2022-09-15T17:14:50.084Z,12.20
2022-09-15T17:17:25.299Z,12.10
2022-09-15T17:19:52.785Z,11.90
2022-09-15T17:22:20.277Z,11.90
2022-09-15T17:24:47.855Z,12.00
2022-09-15T17:27:15.344Z,12.00
2022-09-15T17:29:42.903Z,11.90
2022-09-15T17:32:10.334Z,11.90
2022-09-15T17:34:37.970Z,11.80
2022-09-15T17:37:05.675Z,11.90
2022-09-15T17:39:34.335Z,11.90
2022-09-15T17:44:37.080Z,11.80
2022-09-15T17:47:05.523Z,11.90
2022-09-15T17:49:33.140Z,11.90
2022-09-15T17:52:00.775Z,11.90
2022-09-15T17:54:29.093Z,11.90
2022-09-15T17:56:58.128Z,12.00
2022-09-15T17:59:25.716Z,11.80
2022-09-15T18:01:53.351Z,11.90
2022-09-15T18:04:20.898Z,11.80
2022-09-15T18:06:48.398Z,11.90
2022-09-15T18:09:16.119Z,11.90
2022-09-15T18:11:43.721Z,11.80
2022-09-15T18:14:11.460Z,11.80
2022-09-15T18:16:39.021Z,11.80
2022-09-15T18:19:06.454Z,11.80
2022-09-15T18:21:34.024Z,11.80
2022-09-15T18:24:01.587Z,11.70
2022-09-15T18:26:30.014Z,11.60
2022-09-15T18:28:57.514Z,11.60
2022-09-15T18:31:25.115Z,11.70
2022-09-15T18:33:52.657Z,11.70
2022-09-15T18:36:20.860Z,11.60
2022-09-15T18:38:48.433Z,11.70
2022-09-15T18:41:16.115Z,11.70
2022-09-15T18:43:43.998Z,11.70
2022-09-15T18:46:11.595Z,11.80
2022-09-15T18:48:39.093Z,11.70
2022-09-15T18:51:13.840Z,11.70
2022-09-15T18:53:49.746Z,11.60
2022-09-15T18:56:19.568Z,11.60
2022-09-15T18:58:47.081Z,11.60
2022-09-15T19:01:16.392Z,11.60
2022-09-15T19:03:44.278Z,11.60
2022-09-15T19:06:12.292Z,11.60
2022-09-15T19:08:40.568Z,11.60
2022-09-15T19:11:08.120Z,11.60
2022-09-15T19:13:35.945Z,11.60
2022-09-15T19:16:08.873Z,11.60
2022-09-15T19:18:37.145Z,11.60
2022-09-15T19:21:06.554Z,11.60
2022-09-15T19:23:36.158Z,11.60
2022-09-15T19:26:07.066Z,11.60
2022-09-15T19:28:34.693Z,11.60
2022-09-15T19:31:02.225Z,11.60
2022-09-15T19:33:29.939Z,11.60
2022-09-15T19:36:26.857Z,11.60
2022-09-15T19:38:51.566Z,11.60
2022-09-15T19:41:19.257Z,11.50
2022-09-15T19:43:49.120Z,11.50
2022-09-15T19:46:19.674Z,11.50
2022-09-15T19:48:49.381Z,11.50
2022-09-15T19:51:18.825Z,11.50
2022-09-15T19:53:46.744Z,11.50
2022-09-15T19:56:22.058Z,11.50
2022-09-15T19:58:50.224Z,11.50
2022-09-15T20:01:18.383Z,11.50
2022-09-15T20:06:32.750Z,11.40
2022-09-15T20:09:00.680Z,11.40
2022-09-15T20:11:29.855Z,11.40
2022-09-15T20:13:58.028Z,11.40
2022-09-15T20:16:25.819Z,11.40
2022-09-15T20:18:54.513Z,11.40
2022-09-15T20:21:46.263Z,11.40
2022-09-15T20:24:16.373Z,11.30
2022-09-15T20:26:43.811Z,11.30
2022-09-15T20:29:12.026Z,11.40
2022-09-15T20:31:40.184Z,11.30
2022-09-15T20:34:07.857Z,11.10
2022-09-15T20:36:38.633Z,11.20
2022-09-15T20:39:10.710Z,11.10
2022-09-15T20:41:39.502Z,11.10
2022-09-15T20:44:09.611Z,11.10
2022-09-15T20:46:37.450Z,11.00
2022-09-15T20:49:05.113Z,11.10
2022-09-15T20:51:33.927Z,11.10
2022-09-15T20:54:03.932Z,11.00
2022-09-15T20:56:35.295Z,10.90
2022-09-15T20:59:03.914Z,10.90
2022-09-15T21:01:37.529Z,10.90
2022-09-15T21:04:09.231Z,10.90
2022-09-15T21:06:37.521Z,10.90
2022-09-15T21:09:05.970Z,11.00
2022-09-15T21:11:33.686Z,10.80
2022-09-15T21:14:02.135Z,10.80
2022-09-15T21:16:29.961Z,10.80
2022-09-15T21:18:59.192Z,10.90
2022-09-15T21:21:29.976Z,10.90
2022-09-15T21:24:03.781Z,10.90
2022-09-15T21:26:34.213Z,10.80
2022-09-15T21:29:03.236Z,10.80
2022-09-15T21:31:32.942Z,10.80
2022-09-15T21:34:00.673Z,10.90
2022-09-15T21:36:30.392Z,11.00
2022-09-15T21:38:59.399Z,11.10
2022-09-15T21:41:30.170Z,11.00
2022-09-15T21:43:59.327Z,11.00
2022-09-15T21:46:29.680Z,11.00
2022-09-15T21:48:59.064Z,10.80
2022-09-15T21:51:28.708Z,10.80
2022-09-15T21:53:58.109Z,10.90
2022-09-15T21:56:27.623Z,11.00
2022-09-15T21:58:55.262Z,10.90
2022-09-15T22:01:29.359Z,10.90
2022-09-15T22:04:02.221Z,10.80
2022-09-15T22:06:42.659Z,10.60
2022-09-15T22:09:14.374Z,10.70
2022-09-15T22:11:42.376Z,10.60
2022-09-15T22:14:10.640Z,10.80
2022-09-15T22:16:39.879Z,10.80
2022-09-15T22:19:10.076Z,10.70
2022-09-15T22:21:41.930Z,10.70
2022-09-15T22:24:13.099Z,10.70
2022-09-15T22:26:42.342Z,10.70
2022-09-15T22:29:10.107Z,10.80
2022-09-15T22:31:38.527Z,10.80
2022-09-15T22:34:06.092Z,10.80
2022-09-15T22:36:33.831Z,10.80
2022-09-15T22:39:05.480Z,10.70
2022-09-15T22:41:35.815Z,10.70
2022-09-15T22:44:03.917Z,10.80
2022-09-15T22:46:31.870Z,10.50
2022-09-15T22:48:59.367Z,10.60
2022-09-15T22:51:26.950Z,10.60
2022-09-15T22:53:57.516Z,10.70
2022-09-15T22:56:26.605Z,10.60
2022-09-15T22:58:55.584Z,10.60
2022-09-15T23:01:28.440Z,10.60
2022-09-15T23:04:01.866Z,10.50
2022-09-15T23:06:32.739Z,10.50
2022-09-15T23:09:03.511Z,10.50
2022-09-15T23:11:34.547Z,10.50
2022-09-15T23:14:03.010Z,10.40
2022-09-15T23:16:31.045Z,10.30
2022-09-15T23:18:59.517Z,10.20
2022-09-15T23:21:28.580Z,10.30
2022-09-15T23:23:56.391Z,10.30
2022-09-15T23:26:25.240Z,10.20
2022-09-15T23:28:53.790Z,10.20
2022-09-15T23:31:21.995Z,10.10
2022-09-15T23:33:49.601Z,10.10
2022-09-15T23:36:19.830Z,10.00
2022-09-15T23:38:48.351Z,10.10
2022-09-15T23:41:17.234Z,10.10
2022-09-15T23:43:45.466Z,10.10
2022-09-15T23:46:13.049Z,10.20
2022-09-15T23:48:40.862Z,10.20
2022-09-15T23:51:09.089Z,10.20
2022-09-15T23:53:37.357Z,10.10
2022-09-15T23:56:05.424Z,10.10
2022-09-15T23:58:33.223Z,10.20
